sensor_id;sensor_type;location;lat;lon;timestamp;temperature;humidity
4677;DHT22;2352;48.180;11.478;2023-05-07T00:00:25;14.50;99.90
4677;DHT22;2352;48.180;11.478;2023-05-07T00:03:28;14.50;99.90
4677;DHT22;2352;48.180;11.478;2023-05-07T00:06:32;14.50;99.90
4677;DHT22;2352;48.180;11.478;2023-05-07T00:09:36;14.50;99.90
4677;DHT22;2352;48.180;11.478;2023-05-07T00:12:40;14.50;99.90
4677;DHT22;2352;48.180;11.478;2023-05-07T00:15:43;14.50;99.90
4677;DHT22;2352;48.180;11.478;2023-05-07T00:18:46;14.50;99.90
4677;DHT22;2352;48.180;11.478;2023-05-07T00:21:48;14.40;99.90
4677;DHT22;2352;48.180;11.478;2023-05-07T00:24:51;14.40;99.90
4677;DHT22;2352;48.180;11.478;2023-05-07T00:27:55;14.40;99.90
4677;DHT22;2352;48.180;11.478;2023-05-07T00:30:59;14.40;99.90
4677;DHT22;2352;48.180;11.478;2023-05-07T00:34:01;14.30;99.90
4677;DHT22;2352;48.180;11.478;2023-05-07T00:37:04;14.30;99.90
4677;DHT22;2352;48.180;11.478;2023-05-07T00:40:09;14.30;99.90
4677;DHT22;2352;48.180;11.478;2023-05-07T00:43:14;14.20;99.90
4677;DHT22;2352;48.180;11.478;2023-05-07T00:46:18;14.20;99.90
4677;DHT22;2352;48.180;11.478;2023-05-07T00:49:24;14.20;99.90
4677;DHT22;2352;48.180;11.478;2023-05-07T00:52:30;14.10;99.90
4677;DHT22;2352;48.180;11.478;2023-05-07T00:55:33;14.10;99.90
4677;DHT22;2352;48.180;11.478;2023-05-07T00:58:37;14.10;99.90
4677;DHT22;2352;48.180;11.478;2023-05-07T01:01:40;14.20;99.90
4677;DHT22;2352;48.180;11.478;2023-05-07T01:04:43;14.10;99.90
4677;DHT22;2352;48.180;11.478;2023-05-07T01:07:47;14.10;99.90
4677;DHT22;2352;48.180;11.478;2023-05-07T01:10:51;14.10;99.90
4677;DHT22;2352;48.180;11.478;2023-05-07T01:13:57;14.10;99.90
4677;DHT22;2352;48.180;11.478;2023-05-07T01:17:01;14.10;99.90
4677;DHT22;2352;48.180;11.478;2023-05-07T01:20:05;14.10;99.90
4677;DHT22;2352;48.180;11.478;2023-05-07T01:23:11;14.20;99.90
4677;DHT22;2352;48.180;11.478;2023-05-07T01:26:14;14.10;99.90
4677;DHT22;2352;48.180;11.478;2023-05-07T01:29:17;14.10;99.90
4677;DHT22;2352;48.180;11.478;2023-05-07T01:32:24;14.00;99.90
4677;DHT22;2352;48.180;11.478;2023-05-07T01:35:34;14.10;99.90
4677;DHT22;2352;48.180;11.478;2023-05-07T01:38:41;14.10;99.90
4677;DHT22;2352;48.180;11.478;2023-05-07T01:41:45;14.20;99.90
4677;DHT22;2352;48.180;11.478;2023-05-07T01:44:49;14.10;99.90
4677;DHT22;2352;48.180;11.478;2023-05-07T01:47:52;14.10;99.90
4677;DHT22;2352;48.180;11.478;2023-05-07T01:50:55;14.10;99.90
4677;DHT22;2352;48.180;11.478;2023-05-07T01:54:00;14.20;99.90
4677;DHT22;2352;48.180;11.478;2023-05-07T01:57:03;14.10;99.90
4677;DHT22;2352;48.180;11.478;2023-05-07T02:00:07;14.10;99.90
4677;DHT22;2352;48.180;11.478;2023-05-07T02:03:11;14.10;99.90
4677;DHT22;2352;48.180;11.478;2023-05-07T02:06:15;14.00;99.90
4677;DHT22;2352;48.180;11.478;2023-05-07T02:09:20;14.00;99.90
4677;DHT22;2352;48.180;11.478;2023-05-07T02:12:23;13.90;99.90
4677;DHT22;2352;48.180;11.478;2023-05-07T02:15:26;13.90;99.90
4677;DHT22;2352;48.180;11.478;2023-05-07T02:18:29;13.90;99.90
4677;DHT22;2352;48.180;11.478;2023-05-07T02:21:33;13.90;99.90
4677;DHT22;2352;48.180;11.478;2023-05-07T02:24:37;13.80;99.90
4677;DHT22;2352;48.180;11.478;2023-05-07T02:27:40;13.80;99.90
4677;DHT22;2352;48.180;11.478;2023-05-07T02:30:43;13.80;99.90
4677;DHT22;2352;48.180;11.478;2023-05-07T02:33:46;13.80;99.90
4677;DHT22;2352;48.180;11.478;2023-05-07T02:36:49;13.80;99.90
4677;DHT22;2352;48.180;11.478;2023-05-07T02:39:54;13.80;99.90
4677;DHT22;2352;48.180;11.478;2023-05-07T02:42:56;13.80;99.90
4677;DHT22;2352;48.180;11.478;2023-05-07T02:46:03;13.70;99.90
4677;DHT22;2352;48.180;11.478;2023-05-07T02:49:07;13.70;99.90
4677;DHT22;2352;48.180;11.478;2023-05-07T02:52:10;13.70;99.90
4677;DHT22;2352;48.180;11.478;2023-05-07T02:55:14;13.70;99.90
4677;DHT22;2352;48.180;11.478;2023-05-07T02:58:17;13.70;99.90
4677;DHT22;2352;48.180;11.478;2023-05-07T03:01:20;13.60;99.90
4677;DHT22;2352;48.180;11.478;2023-05-07T03:04:23;13.60;99.90
4677;DHT22;2352;48.180;11.478;2023-05-07T03:07:26;13.60;99.90
4677;DHT22;2352;48.180;11.478;2023-05-07T03:10:30;13.60;99.90
4677;DHT22;2352;48.180;11.478;2023-05-07T03:13:33;13.60;99.90
4677;DHT22;2352;48.180;11.478;2023-05-07T03:16:37;13.60;99.90
4677;DHT22;2352;48.180;11.478;2023-05-07T03:19:40;13.50;99.90
4677;DHT22;2352;48.180;11.478;2023-05-07T03:22:43;13.50;99.90
4677;DHT22;2352;48.180;11.478;2023-05-07T03:25:47;13.50;99.90
4677;DHT22;2352;48.180;11.478;2023-05-07T03:28:51;13.50;99.90
4677;DHT22;2352;48.180;11.478;2023-05-07T03:31:53;13.50;99.90
4677;DHT22;2352;48.180;11.478;2023-05-07T03:34:56;13.40;99.90
4677;DHT22;2352;48.180;11.478;2023-05-07T03:37:59;13.40;99.90
4677;DHT22;2352;48.180;11.478;2023-05-07T03:41:04;13.50;99.90
4677;DHT22;2352;48.180;11.478;2023-05-07T03:44:07;13.50;99.90
4677;DHT22;2352;48.180;11.478;2023-05-07T03:47:09;13.50;99.90
4677;DHT22;2352;48.180;11.478;2023-05-07T03:50:12;13.40;99.90
4677;DHT22;2352;48.180;11.478;2023-05-07T03:53:15;13.40;99.90
4677;DHT22;2352;48.180;11.478;2023-05-07T03:56:20;13.40;99.90
4677;DHT22;2352;48.180;11.478;2023-05-07T03:59:23;13.40;99.90
4677;DHT22;2352;48.180;11.478;2023-05-07T04:02:26;13.30;99.90
4677;DHT22;2352;48.180;11.478;2023-05-07T04:05:30;13.30;99.90
4677;DHT22;2352;48.180;11.478;2023-05-07T04:08:32;13.30;99.90
4677;DHT22;2352;48.180;11.478;2023-05-07T04:11:37;13.20;99.90
4677;DHT22;2352;48.180;11.478;2023-05-07T04:14:41;13.30;99.90
4677;DHT22;2352;48.180;11.478;2023-05-07T04:17:44;13.30;99.90
4677;DHT22;2352;48.180;11.478;2023-05-07T04:20:47;13.30;99.90
4677;DHT22;2352;48.180;11.478;2023-05-07T04:23:50;13.20;99.90
4677;DHT22;2352;48.180;11.478;2023-05-07T04:26:55;13.20;99.90
4677;DHT22;2352;48.180;11.478;2023-05-07T04:29:58;13.20;99.90
4677;DHT22;2352;48.180;11.478;2023-05-07T04:33:02;13.20;99.90
4677;DHT22;2352;48.180;11.478;2023-05-07T04:36:05;13.20;99.90
4677;DHT22;2352;48.180;11.478;2023-05-07T04:39:08;13.30;99.90
4677;DHT22;2352;48.180;11.478;2023-05-07T04:42:15;13.30;99.90
4677;DHT22;2352;48.180;11.478;2023-05-07T04:45:19;13.40;99.90
4677;DHT22;2352;48.180;11.478;2023-05-07T04:48:22;13.40;99.90
4677;DHT22;2352;48.180;11.478;2023-05-07T04:51:25;13.40;99.90
4677;DHT22;2352;48.180;11.478;2023-05-07T04:54:29;13.40;99.90
4677;DHT22;2352;48.180;11.478;2023-05-07T04:57:33;13.50;99.90
4677;DHT22;2352;48.180;11.478;2023-05-07T05:00:36;13.50;99.90
4677;DHT22;2352;48.180;11.478;2023-05-07T05:03:40;13.60;99.90
4677;DHT22;2352;48.180;11.478;2023-05-07T05:06:43;13.60;99.90
4677;DHT22;2352;48.180;11.478;2023-05-07T05:09:46;13.60;99.90
4677;DHT22;2352;48.180;11.478;2023-05-07T05:12:50;13.70;99.90
4677;DHT22;2352;48.180;11.478;2023-05-07T05:15:53;13.80;99.90
4677;DHT22;2352;48.180;11.478;2023-05-07T05:18:56;13.80;99.90
4677;DHT22;2352;48.180;11.478;2023-05-07T05:21:59;13.90;99.90
4677;DHT22;2352;48.180;11.478;2023-05-07T05:28:07;14.00;99.90
4677;DHT22;2352;48.180;11.478;2023-05-07T05:31:10;14.00;99.90
4677;DHT22;2352;48.180;11.478;2023-05-07T05:34:13;14.10;99.90
4677;DHT22;2352;48.180;11.478;2023-05-07T05:37:17;14.20;99.90
4677;DHT22;2352;48.180;11.478;2023-05-07T05:40:20;14.20;99.90
4677;DHT22;2352;48.180;11.478;2023-05-07T05:43:24;14.30;99.90
4677;DHT22;2352;48.180;11.478;2023-05-07T05:46:27;14.40;99.90
4677;DHT22;2352;48.180;11.478;2023-05-07T05:49:30;14.40;99.90
4677;DHT22;2352;48.180;11.478;2023-05-07T05:52:33;14.50;99.90
4677;DHT22;2352;48.180;11.478;2023-05-07T05:55:36;14.60;99.90
4677;DHT22;2352;48.180;11.478;2023-05-07T05:58:40;14.70;99.90
4677;DHT22;2352;48.180;11.478;2023-05-07T06:04:47;14.90;99.90
4677;DHT22;2352;48.180;11.478;2023-05-07T07:45:55;18.80;99.90
4677;DHT22;2352;48.180;11.478;2023-05-07T07:48:58;19.00;99.90
4677;DHT22;2352;48.180;11.478;2023-05-07T07:52:01;19.20;99.90
4677;DHT22;2352;48.180;11.478;2023-05-07T07:55:05;19.30;99.90
4677;DHT22;2352;48.180;11.478;2023-05-07T07:58:08;19.60;99.90
4677;DHT22;2352;48.180;11.478;2023-05-07T08:01:13;19.60;99.90
4677;DHT22;2352;48.180;11.478;2023-05-07T08:04:16;19.60;99.90
4677;DHT22;2352;48.180;11.478;2023-05-07T08:07:18;19.60;99.90
4677;DHT22;2352;48.180;11.478;2023-05-07T08:10:24;19.60;99.90
4677;DHT22;2352;48.180;11.478;2023-05-07T08:13:27;19.70;99.90
4677;DHT22;2352;48.180;11.478;2023-05-07T08:16:31;19.70;99.90
4677;DHT22;2352;48.180;11.478;2023-05-07T08:19:34;19.70;99.90
4677;DHT22;2352;48.180;11.478;2023-05-07T08:22:37;19.70;99.90
4677;DHT22;2352;48.180;11.478;2023-05-07T08:25:40;19.90;99.90
4677;DHT22;2352;48.180;11.478;2023-05-07T08:28:44;20.00;99.90
4677;DHT22;2352;48.180;11.478;2023-05-07T08:31:48;20.30;99.50
4677;DHT22;2352;48.180;11.478;2023-05-07T08:34:51;20.40;98.40
4677;DHT22;2352;48.180;11.478;2023-05-07T08:37:54;20.50;98.60
4677;DHT22;2352;48.180;11.478;2023-05-07T08:40:57;20.60;98.60
4677;DHT22;2352;48.180;11.478;2023-05-07T08:44:02;20.70;97.20
4677;DHT22;2352;48.180;11.478;2023-05-07T08:47:07;20.80;98.10
4677;DHT22;2352;48.180;11.478;2023-05-07T08:50:10;20.90;97.60
4677;DHT22;2352;48.180;11.478;2023-05-07T08:53:15;21.00;98.30
4677;DHT22;2352;48.180;11.478;2023-05-07T08:56:19;21.20;98.20
4677;DHT22;2352;48.180;11.478;2023-05-07T08:59:23;21.30;97.50
4677;DHT22;2352;48.180;11.478;2023-05-07T09:02:27;21.30;97.60
4677;DHT22;2352;48.180;11.478;2023-05-07T09:05:30;21.40;96.80
4677;DHT22;2352;48.180;11.478;2023-05-07T09:08:34;21.40;96.50
4677;DHT22;2352;48.180;11.478;2023-05-07T09:11:37;21.40;97.10
4677;DHT22;2352;48.180;11.478;2023-05-07T09:14:40;21.50;97.10
4677;DHT22;2352;48.180;11.478;2023-05-07T09:17:44;21.60;96.60
4677;DHT22;2352;48.180;11.478;2023-05-07T09:20:48;21.70;96.30
4677;DHT22;2352;48.180;11.478;2023-05-07T09:26:55;21.90;93.50
4677;DHT22;2352;48.180;11.478;2023-05-07T09:30:03;21.90;94.60
4677;DHT22;2352;48.180;11.478;2023-05-07T09:33:09;21.90;93.80
4677;DHT22;2352;48.180;11.478;2023-05-07T09:36:12;22.00;93.00
4677;DHT22;2352;48.180;11.478;2023-05-07T09:39:15;22.10;94.20
4677;DHT22;2352;48.180;11.478;2023-05-07T09:42:23;22.20;93.90
4677;DHT22;2352;48.180;11.478;2023-05-07T09:48:32;22.40;93.20
4677;DHT22;2352;48.180;11.478;2023-05-07T09:51:41;22.40;93.80
4677;DHT22;2352;48.180;11.478;2023-05-07T09:57:52;22.60;92.10
4677;DHT22;2352;48.180;11.478;2023-05-07T10:00:56;22.60;88.50
4677;DHT22;2352;48.180;11.478;2023-05-07T10:04:02;22.60;90.20
4677;DHT22;2352;48.180;11.478;2023-05-07T10:07:06;22.60;89.40
4677;DHT22;2352;48.180;11.478;2023-05-07T10:10:10;22.60;88.30
4677;DHT22;2352;48.180;11.478;2023-05-07T10:19:22;22.60;88.50
4677;DHT22;2352;48.180;11.478;2023-05-07T10:22:28;22.60;86.30
4677;DHT22;2352;48.180;11.478;2023-05-07T10:25:32;22.50;87.50
4677;DHT22;2352;48.180;11.478;2023-05-07T10:28:38;22.50;90.50
4677;DHT22;2352;48.180;11.478;2023-05-07T10:31:51;22.50;90.00
4677;DHT22;2352;48.180;11.478;2023-05-07T10:35:01;22.50;89.70
4677;DHT22;2352;48.180;11.478;2023-05-07T10:38:05;22.50;91.10
4677;DHT22;2352;48.180;11.478;2023-05-07T10:41:08;22.40;85.10
4677;DHT22;2352;48.180;11.478;2023-05-07T10:44:12;22.30;90.60
4677;DHT22;2352;48.180;11.478;2023-05-07T10:47:27;22.20;89.60
4677;DHT22;2352;48.180;11.478;2023-05-07T10:50:31;22.40;89.20
4677;DHT22;2352;48.180;11.478;2023-05-07T10:53:34;22.60;88.30
4677;DHT22;2352;48.180;11.478;2023-05-07T10:56:37;22.80;90.00
4677;DHT22;2352;48.180;11.478;2023-05-07T10:59:41;23.00;87.30
4677;DHT22;2352;48.180;11.478;2023-05-07T11:03:06;23.10;88.60
4677;DHT22;2352;48.180;11.478;2023-05-07T11:06:13;23.20;88.80
4677;DHT22;2352;48.180;11.478;2023-05-07T11:09:16;23.00;89.40
4677;DHT22;2352;48.180;11.478;2023-05-07T11:12:50;22.90;90.30
4677;DHT22;2352;48.180;11.478;2023-05-07T11:15:53;22.80;88.60
4677;DHT22;2352;48.180;11.478;2023-05-07T11:18:56;22.70;89.90
4677;DHT22;2352;48.180;11.478;2023-05-07T11:22:01;22.90;90.40
4677;DHT22;2352;48.180;11.478;2023-05-07T11:25:04;23.20;90.60
4677;DHT22;2352;48.180;11.478;2023-05-07T11:28:08;23.40;89.30
4677;DHT22;2352;48.180;11.478;2023-05-07T11:31:12;23.70;90.40
4677;DHT22;2352;48.180;11.478;2023-05-07T11:34:21;23.90;89.60
4677;DHT22;2352;48.180;11.478;2023-05-07T11:37:26;24.10;86.00
4677;DHT22;2352;48.180;11.478;2023-05-07T11:40:31;24.10;87.10
4677;DHT22;2352;48.180;11.478;2023-05-07T11:43:34;23.90;86.70
4677;DHT22;2352;48.180;11.478;2023-05-07T11:46:42;24.10;87.00
4677;DHT22;2352;48.180;11.478;2023-05-07T11:49:47;24.20;86.50
4677;DHT22;2352;48.180;11.478;2023-05-07T11:52:51;24.20;86.70
4677;DHT22;2352;48.180;11.478;2023-05-07T11:55:55;24.40;85.80
4677;DHT22;2352;48.180;11.478;2023-05-07T11:58:58;24.60;86.00
4677;DHT22;2352;48.180;11.478;2023-05-07T12:02:01;24.70;83.90
4677;DHT22;2352;48.180;11.478;2023-05-07T12:05:05;24.60;83.50
4677;DHT22;2352;48.180;11.478;2023-05-07T12:08:13;24.50;84.40
4677;DHT22;2352;48.180;11.478;2023-05-07T12:11:23;24.50;79.80
4677;DHT22;2352;48.180;11.478;2023-05-07T12:14:27;24.50;81.50
4677;DHT22;2352;48.180;11.478;2023-05-07T12:17:31;24.40;82.00
4677;DHT22;2352;48.180;11.478;2023-05-07T12:20:35;24.50;80.10
4677;DHT22;2352;48.180;11.478;2023-05-07T12:23:39;24.70;79.30
4677;DHT22;2352;48.180;11.478;2023-05-07T12:26:43;24.90;74.80
4677;DHT22;2352;48.180;11.478;2023-05-07T12:29:47;25.00;76.50
4677;DHT22;2352;48.180;11.478;2023-05-07T12:32:52;25.10;76.30
4677;DHT22;2352;48.180;11.478;2023-05-07T12:35:56;25.00;77.30
4677;DHT22;2352;48.180;11.478;2023-05-07T12:39:01;25.10;75.80
4677;DHT22;2352;48.180;11.478;2023-05-07T12:42:04;25.10;77.30
4677;DHT22;2352;48.180;11.478;2023-05-07T12:45:08;25.10;74.60
4677;DHT22;2352;48.180;11.478;2023-05-07T12:48:12;25.00;76.10
4677;DHT22;2352;48.180;11.478;2023-05-07T12:51:15;24.90;74.90
4677;DHT22;2352;48.180;11.478;2023-05-07T12:54:29;25.10;78.40
4677;DHT22;2352;48.180;11.478;2023-05-07T12:57:38;25.20;78.30
4677;DHT22;2352;48.180;11.478;2023-05-07T13:00:41;25.30;77.10
4677;DHT22;2352;48.180;11.478;2023-05-07T13:03:48;25.20;74.90
4677;DHT22;2352;48.180;11.478;2023-05-07T13:06:52;25.10;73.70
4677;DHT22;2352;48.180;11.478;2023-05-07T13:09:56;25.20;75.80
4677;DHT22;2352;48.180;11.478;2023-05-07T13:13:00;25.10;72.20
4677;DHT22;2352;48.180;11.478;2023-05-07T13:16:04;25.10;70.50
4677;DHT22;2352;48.180;11.478;2023-05-07T13:19:08;25.00;67.60
4677;DHT22;2352;48.180;11.478;2023-05-07T13:22:10;24.90;70.80
4677;DHT22;2352;48.180;11.478;2023-05-07T13:25:15;24.90;73.60
4677;DHT22;2352;48.180;11.478;2023-05-07T13:28:18;24.90;72.00
4677;DHT22;2352;48.180;11.478;2023-05-07T13:31:22;24.90;72.30
4677;DHT22;2352;48.180;11.478;2023-05-07T13:34:25;25.00;73.60
4677;DHT22;2352;48.180;11.478;2023-05-07T13:37:28;25.10;71.00
4677;DHT22;2352;48.180;11.478;2023-05-07T13:40:33;25.00;71.80
4677;DHT22;2352;48.180;11.478;2023-05-07T13:43:36;24.90;74.10
4677;DHT22;2352;48.180;11.478;2023-05-07T13:46:40;24.90;75.60
4677;DHT22;2352;48.180;11.478;2023-05-07T13:49:43;24.90;76.40
4677;DHT22;2352;48.180;11.478;2023-05-07T13:52:46;24.90;73.60
4677;DHT22;2352;48.180;11.478;2023-05-07T13:55:53;24.90;77.00
4677;DHT22;2352;48.180;11.478;2023-05-07T13:58:56;24.80;77.50
4677;DHT22;2352;48.180;11.478;2023-05-07T14:02:01;24.70;74.60
4677;DHT22;2352;48.180;11.478;2023-05-07T14:05:05;24.60;75.50
4677;DHT22;2352;48.180;11.478;2023-05-07T14:08:08;24.50;74.80
4677;DHT22;2352;48.180;11.478;2023-05-07T14:11:13;24.50;76.30
4677;DHT22;2352;48.180;11.478;2023-05-07T14:14:16;24.50;75.80
4677;DHT22;2352;48.180;11.478;2023-05-07T14:17:19;24.40;76.90
4677;DHT22;2352;48.180;11.478;2023-05-07T14:20:25;24.30;80.20
4677;DHT22;2352;48.180;11.478;2023-05-07T14:23:28;24.30;79.50
4677;DHT22;2352;48.180;11.478;2023-05-07T14:26:32;24.20;80.40
4677;DHT22;2352;48.180;11.478;2023-05-07T14:29:35;24.00;80.00
4677;DHT22;2352;48.180;11.478;2023-05-07T14:32:38;23.90;80.80
4677;DHT22;2352;48.180;11.478;2023-05-07T14:35:41;23.80;79.40
4677;DHT22;2352;48.180;11.478;2023-05-07T14:38:49;23.70;80.50
4677;DHT22;2352;48.180;11.478;2023-05-07T14:41:53;23.70;80.40
4677;DHT22;2352;48.180;11.478;2023-05-07T14:44:57;23.70;82.90
4677;DHT22;2352;48.180;11.478;2023-05-07T14:48:01;23.50;79.80
4677;DHT22;2352;48.180;11.478;2023-05-07T14:51:04;23.50;80.40
4677;DHT22;2352;48.180;11.478;2023-05-07T14:54:08;23.40;79.80
4677;DHT22;2352;48.180;11.478;2023-05-07T14:57:14;23.40;82.80
4677;DHT22;2352;48.180;11.478;2023-05-07T15:00:18;23.30;80.10
4677;DHT22;2352;48.180;11.478;2023-05-07T15:03:21;23.20;79.60
4677;DHT22;2352;48.180;11.478;2023-05-07T15:06:25;23.10;81.90
4677;DHT22;2352;48.180;11.478;2023-05-07T15:09:29;23.10;83.20
4677;DHT22;2352;48.180;11.478;2023-05-07T15:12:33;22.90;81.30
4677;DHT22;2352;48.180;11.478;2023-05-07T15:15:37;22.90;81.50
4677;DHT22;2352;48.180;11.478;2023-05-07T15:18:40;22.90;81.70
4677;DHT22;2352;48.180;11.478;2023-05-07T15:21:43;22.80;82.80
4677;DHT22;2352;48.180;11.478;2023-05-07T15:24:46;22.80;82.80
4677;DHT22;2352;48.180;11.478;2023-05-07T15:27:51;22.70;81.40
4677;DHT22;2352;48.180;11.478;2023-05-07T15:30:54;22.70;81.60
4677;DHT22;2352;48.180;11.478;2023-05-07T15:33:57;22.50;79.80
4677;DHT22;2352;48.180;11.478;2023-05-07T15:37:00;22.50;80.20
4677;DHT22;2352;48.180;11.478;2023-05-07T15:40:04;22.30;79.80
4677;DHT22;2352;48.180;11.478;2023-05-07T15:43:11;22.30;81.30
4677;DHT22;2352;48.180;11.478;2023-05-07T15:46:17;22.30;82.00
4677;DHT22;2352;48.180;11.478;2023-05-07T15:49:22;22.30;81.20
4677;DHT22;2352;48.180;11.478;2023-05-07T15:52:25;22.20;83.90
4677;DHT22;2352;48.180;11.478;2023-05-07T15:55:29;22.20;82.70
4677;DHT22;2352;48.180;11.478;2023-05-07T15:58:34;22.10;83.60
4677;DHT22;2352;48.180;11.478;2023-05-07T16:01:37;22.10;81.60
4677;DHT22;2352;48.180;11.478;2023-05-07T16:04:41;22.10;81.10
4677;DHT22;2352;48.180;11.478;2023-05-07T16:07:44;22.10;81.00
4677;DHT22;2352;48.180;11.478;2023-05-07T16:10:48;22.00;80.40
4677;DHT22;2352;48.180;11.478;2023-05-07T16:13:52;22.00;81.80
4677;DHT22;2352;48.180;11.478;2023-05-07T16:16:55;21.90;82.60
4677;DHT22;2352;48.180;11.478;2023-05-07T16:19:58;22.00;80.60
4677;DHT22;2352;48.180;11.478;2023-05-07T16:23:02;22.00;81.80
4677;DHT22;2352;48.180;11.478;2023-05-07T16:26:05;21.90;80.50
4677;DHT22;2352;48.180;11.478;2023-05-07T16:29:09;21.80;81.90
4677;DHT22;2352;48.180;11.478;2023-05-07T16:32:12;21.80;83.00
4677;DHT22;2352;48.180;11.478;2023-05-07T16:35:15;21.80;80.90
4677;DHT22;2352;48.180;11.478;2023-05-07T16:38:18;21.70;81.50
4677;DHT22;2352;48.180;11.478;2023-05-07T16:41:21;21.70;82.40
4677;DHT22;2352;48.180;11.478;2023-05-07T16:44:26;21.70;82.90
4677;DHT22;2352;48.180;11.478;2023-05-07T16:47:29;21.70;82.70
4677;DHT22;2352;48.180;11.478;2023-05-07T16:50:32;21.60;82.20
4677;DHT22;2352;48.180;11.478;2023-05-07T16:53:35;21.50;82.90
4677;DHT22;2352;48.180;11.478;2023-05-07T16:56:38;21.50;82.30
4677;DHT22;2352;48.180;11.478;2023-05-07T16:59:44;21.50;82.50
4677;DHT22;2352;48.180;11.478;2023-05-07T17:02:47;21.50;85.80
4677;DHT22;2352;48.180;11.478;2023-05-07T17:05:51;21.40;84.80
4677;DHT22;2352;48.180;11.478;2023-05-07T17:08:54;21.40;83.90
4677;DHT22;2352;48.180;11.478;2023-05-07T17:11:56;21.30;84.20
4677;DHT22;2352;48.180;11.478;2023-05-07T17:15:01;21.30;85.50
4677;DHT22;2352;48.180;11.478;2023-05-07T17:18:04;21.30;83.90
4677;DHT22;2352;48.180;11.478;2023-05-07T17:21:07;21.30;85.00
4677;DHT22;2352;48.180;11.478;2023-05-07T17:24:10;21.30;85.40
4677;DHT22;2352;48.180;11.478;2023-05-07T17:27:13;21.20;85.70
4677;DHT22;2352;48.180;11.478;2023-05-07T17:30:17;21.20;86.10
4677;DHT22;2352;48.180;11.478;2023-05-07T17:33:20;21.20;85.60
4677;DHT22;2352;48.180;11.478;2023-05-07T17:36:24;21.10;86.60
4677;DHT22;2352;48.180;11.478;2023-05-07T17:39:27;21.10;90.10
4677;DHT22;2352;48.180;11.478;2023-05-07T17:42:30;21.00;88.90
4677;DHT22;2352;48.180;11.478;2023-05-07T17:45:35;20.90;86.60
4677;DHT22;2352;48.180;11.478;2023-05-07T17:48:38;20.90;88.50
4677;DHT22;2352;48.180;11.478;2023-05-07T17:51:41;20.80;89.60
4677;DHT22;2352;48.180;11.478;2023-05-07T17:54:55;20.70;89.20
4677;DHT22;2352;48.180;11.478;2023-05-07T17:57:58;20.70;90.40
4677;DHT22;2352;48.180;11.478;2023-05-07T18:01:02;20.60;90.60
4677;DHT22;2352;48.180;11.478;2023-05-07T18:04:05;20.60;90.50
4677;DHT22;2352;48.180;11.478;2023-05-07T18:07:08;20.50;91.40
4677;DHT22;2352;48.180;11.478;2023-05-07T18:10:12;20.40;91.50
4677;DHT22;2352;48.180;11.478;2023-05-07T18:13:15;20.30;91.90
4677;DHT22;2352;48.180;11.478;2023-05-07T18:16:19;20.30;91.80
4677;DHT22;2352;48.180;11.478;2023-05-07T18:19:22;20.20;93.10
4677;DHT22;2352;48.180;11.478;2023-05-07T18:22:26;20.10;93.50
4677;DHT22;2352;48.180;11.478;2023-05-07T18:25:29;20.00;93.40
4677;DHT22;2352;48.180;11.478;2023-05-07T18:28:32;19.90;94.30
4677;DHT22;2352;48.180;11.478;2023-05-07T18:31:36;19.80;94.20
4677;DHT22;2352;48.180;11.478;2023-05-07T18:34:39;19.70;94.50
4677;DHT22;2352;48.180;11.478;2023-05-07T18:37:42;19.70;94.50
4677;DHT22;2352;48.180;11.478;2023-05-07T18:40:45;19.70;94.40
4677;DHT22;2352;48.180;11.478;2023-05-07T18:43:48;19.60;94.90
4677;DHT22;2352;48.180;11.478;2023-05-07T18:46:52;19.50;95.60
4677;DHT22;2352;48.180;11.478;2023-05-07T18:49:55;19.50;95.80
4677;DHT22;2352;48.180;11.478;2023-05-07T18:52:58;19.40;96.00
4677;DHT22;2352;48.180;11.478;2023-05-07T18:56:01;19.30;96.50
4677;DHT22;2352;48.180;11.478;2023-05-07T18:59:04;19.30;96.30
4677;DHT22;2352;48.180;11.478;2023-05-07T19:02:08;19.30;95.70
4677;DHT22;2352;48.180;11.478;2023-05-07T19:05:11;19.30;95.40
4677;DHT22;2352;48.180;11.478;2023-05-07T19:08:14;19.30;95.90
4677;DHT22;2352;48.180;11.478;2023-05-07T19:11:17;19.30;95.60
4677;DHT22;2352;48.180;11.478;2023-05-07T19:14:20;19.20;95.00
4677;DHT22;2352;48.180;11.478;2023-05-07T19:17:25;19.20;96.10
4677;DHT22;2352;48.180;11.478;2023-05-07T19:20:28;19.20;95.10
4677;DHT22;2352;48.180;11.478;2023-05-07T19:23:32;19.20;95.30
4677;DHT22;2352;48.180;11.478;2023-05-07T19:26:35;19.20;96.30
4677;DHT22;2352;48.180;11.478;2023-05-07T19:29:39;19.20;96.80
4677;DHT22;2352;48.180;11.478;2023-05-07T19:32:43;19.10;97.00
4677;DHT22;2352;48.180;11.478;2023-05-07T19:35:46;19.10;97.20
4677;DHT22;2352;48.180;11.478;2023-05-07T19:38:49;19.10;97.40
4677;DHT22;2352;48.180;11.478;2023-05-07T19:41:54;19.00;98.20
4677;DHT22;2352;48.180;11.478;2023-05-07T19:44:58;19.00;97.80
4677;DHT22;2352;48.180;11.478;2023-05-07T19:48:03;19.00;97.90
4677;DHT22;2352;48.180;11.478;2023-05-07T19:51:06;19.00;97.80
4677;DHT22;2352;48.180;11.478;2023-05-07T19:54:09;19.00;98.10
4677;DHT22;2352;48.180;11.478;2023-05-07T19:57:12;19.00;98.80
4677;DHT22;2352;48.180;11.478;2023-05-07T20:00:17;18.90;98.70
4677;DHT22;2352;48.180;11.478;2023-05-07T20:03:23;18.90;98.80
4677;DHT22;2352;48.180;11.478;2023-05-07T20:06:26;18.90;99.10
4677;DHT22;2352;48.180;11.478;2023-05-07T20:09:29;18.90;99.90
4677;DHT22;2352;48.180;11.478;2023-05-07T20:12:32;18.80;99.90
4677;DHT22;2352;48.180;11.478;2023-05-07T20:15:35;18.80;99.90
4677;DHT22;2352;48.180;11.478;2023-05-07T20:18:40;18.70;99.90
4677;DHT22;2352;48.180;11.478;2023-05-07T20:21:43;18.70;99.90
4677;DHT22;2352;48.180;11.478;2023-05-07T20:24:45;18.70;99.90
4677;DHT22;2352;48.180;11.478;2023-05-07T20:27:48;18.70;99.90
4677;DHT22;2352;48.180;11.478;2023-05-07T20:30:51;18.70;99.90
4677;DHT22;2352;48.180;11.478;2023-05-07T20:33:56;18.70;99.90
4677;DHT22;2352;48.180;11.478;2023-05-07T20:36:59;18.60;99.90
4677;DHT22;2352;48.180;11.478;2023-05-07T20:40:02;18.60;99.90
4677;DHT22;2352;48.180;11.478;2023-05-07T20:43:06;18.60;99.90
4677;DHT22;2352;48.180;11.478;2023-05-07T20:46:09;18.50;99.90
4677;DHT22;2352;48.180;11.478;2023-05-07T20:49:13;18.50;99.90
4677;DHT22;2352;48.180;11.478;2023-05-07T20:52:18;18.50;99.90
4677;DHT22;2352;48.180;11.478;2023-05-07T20:55:21;18.40;99.90
4677;DHT22;2352;48.180;11.478;2023-05-07T20:58:26;18.40;99.90
4677;DHT22;2352;48.180;11.478;2023-05-07T21:01:29;18.30;99.90
4677;DHT22;2352;48.180;11.478;2023-05-07T21:04:33;18.30;99.90
4677;DHT22;2352;48.180;11.478;2023-05-07T21:07:37;18.30;99.90
4677;DHT22;2352;48.180;11.478;2023-05-07T21:10:39;18.20;99.90
4677;DHT22;2352;48.180;11.478;2023-05-07T21:13:42;18.20;99.90
4677;DHT22;2352;48.180;11.478;2023-05-07T21:16:45;18.20;99.90
4677;DHT22;2352;48.180;11.478;2023-05-07T21:19:50;18.10;99.90
4677;DHT22;2352;48.180;11.478;2023-05-07T21:22:53;18.10;99.90
4677;DHT22;2352;48.180;11.478;2023-05-07T21:25:56;18.10;99.90
4677;DHT22;2352;48.180;11.478;2023-05-07T21:28:59;18.10;99.90
4677;DHT22;2352;48.180;11.478;2023-05-07T21:32:02;18.10;99.90
4677;DHT22;2352;48.180;11.478;2023-05-07T21:35:08;18.10;99.90
4677;DHT22;2352;48.180;11.478;2023-05-07T21:38:11;18.00;99.90